Terminal Aerodrome Forecast
Issued by NWS

Home | Current Version | Previous Version | Text Only | Print | Product List | Glossary On
Versions: 1 2 3 4 5 6 7 8 9 10 11 12
000
FTUS44 KOUN 230520
TAFGAG
TAF
KGAG 230520Z 2306/2406 17016G25KT P6SM SKC
     FM231200 18019G28KT P6SM SCT250
     FM231600 19029G37KT P6SM FEW060 SCT250
     FM232300 17027G35KT P6SM VCTS SCT060CB OVC250=

USA.gov is the U.S. government's official web portal to all federal, state and local government web resources and services.